Time;durP1;ratioP1;P1;durP2;ratioP2;P2;SDS_P1;SDS_P2;PMS_P1;PMS_P2;Temp;Humidity;BMP_temperature;BMP_pressure;BME280_temperature;BME280_humidity;BME280_pressure;Samples;Min_cycle;Max_cycle;Signal;HPM_P1;HPM_P2
2023/05/23 00:01:08;;;;;;;29.07;26.17;;;;;;;17.80;100.00;99947.94;4998031;28;20297;-65
2023/05/23 00:03:33;;;;;;;30.43;27.20;;;;;;;17.86;100.00;99950.84;5010878;28;20539;-65
2023/05/23 00:06:00;;;;;;;28.80;26.07;;;;;;;17.79;100.00;99948.91;5011507;28;20197;-66
2023/05/23 00:08:26;;;;;;;28.00;25.30;;;;;;;17.82;100.00;99949.44;5011974;28;20313;-65
2023/05/23 00:10:51;;;;;;;30.37;27.30;;;;;;;17.82;100.00;99946.03;5007919;28;20305;-66
2023/05/23 00:13:17;;;;;;;30.53;27.37;;;;;;;17.71;100.00;99944.38;5010491;28;20557;-65
2023/05/23 00:15:43;;;;;;;31.60;28.40;;;;;;;17.69;100.00;99951.50;5022866;28;20715;-66
2023/05/23 00:18:12;;;;;;;31.97;28.80;;;;;;;17.69;100.00;99941.91;5011783;28;20175;-66
2023/05/23 00:20:41;;;;;;;30.70;27.50;;;;;;;17.64;100.00;99948.44;5006130;28;20225;-65
2023/05/23 00:23:08;;;;;;;30.70;27.40;;;;;;;17.62;100.00;99956.38;5022040;28;20646;-66
2023/05/23 00:25:34;;;;;;;32.13;29.23;;;;;;;17.66;100.00;99954.34;5011057;28;20182;-66
2023/05/23 00:28:00;;;;;;;32.30;28.97;;;;;;;17.56;100.00;99955.16;5010130;28;20179;-66
2023/05/23 00:30:26;;;;;;;32.77;29.67;;;;;;;17.52;100.00;99951.16;4991541;28;20258;-65
2023/05/23 00:32:53;;;;;;;33.70;30.50;;;;;;;17.65;100.00;99953.53;5023947;28;20626;-65
2023/05/23 00:35:19;;;;;;;33.83;30.83;;;;;;;17.66;100.00;99952.59;5009676;28;20561;-66
2023/05/23 00:37:44;;;;;;;33.60;30.40;;;;;;;17.61;100.00;99952.13;5011722;28;20709;-65
2023/05/23 00:40:10;;;;;;;33.43;30.17;;;;;;;17.66;100.00;99955.19;5000780;28;20669;-66
2023/05/23 00:42:35;;;;;;;31.80;28.67;;;;;;;17.66;100.00;99954.34;5025417;28;20175;-63
2023/05/23 00:45:00;;;;;;;34.80;31.70;;;;;;;17.54;100.00;99959.66;5011016;28;20228;-63
2023/05/23 00:47:25;;;;;;;35.50;32.00;;;;;;;17.54;100.00;99961.44;5014398;28;20603;-64
2023/05/23 00:49:51;;;;;;;32.10;29.20;;;;;;;17.53;100.00;99965.00;5015076;28;20190;-66
2023/05/23 00:52:16;;;;;;;32.63;29.63;;;;;;;17.62;100.00;99965.97;5020370;28;20697;-64
2023/05/23 00:54:41;;;;;;;32.90;29.70;;;;;;;17.69;100.00;99961.91;5014295;28;20242;-64
2023/05/23 00:57:06;;;;;;;34.07;30.83;;;;;;;17.70;100.00;99972.16;5014623;28;20214;-63
2023/05/23 00:59:32;;;;;;;31.90;28.97;;;;;;;17.85;100.00;99979.56;5015217;28;20183;-64
2023/05/23 01:01:59;;;;;;;32.13;28.93;;;;;;;17.78;100.00;99971.50;5019756;28;20222;-64
2023/05/23 01:04:27;;;;;;;32.90;29.83;;;;;;;17.67;100.00;99974.22;5015433;28;20580;-64
2023/05/23 01:06:56;;;;;;;34.80;31.50;;;;;;;17.65;100.00;99976.09;5015062;28;20198;-64
2023/05/23 01:09:23;;;;;;;32.20;29.30;;;;;;;17.65;100.00;99979.56;5014736;28;20219;-64
2023/05/23 01:12:07;;;;;;;33.47;30.47;;;;;;;17.64;100.00;99977.06;5018407;28;20222;-64
2023/05/23 01:14:45;;;;;;;33.77;30.60;;;;;;;17.58;100.00;99981.03;5003704;28;20556;-64
2023/05/23 01:17:20;;;;;;;34.10;30.93;;;;;;;17.56;100.00;99980.31;5014385;28;20232;-65
2023/05/23 01:19:55;;;;;;;32.60;29.73;;;;;;;17.57;100.00;99976.78;5012713;28;20225;-64
2023/05/23 01:22:49;;;;;;;32.70;29.90;;;;;;;17.65;100.00;99974.34;5004357;28;20693;-64
2023/05/23 01:26:01;;;;;;;30.43;27.80;;;;;;;17.45;100.00;99972.63;5014335;28;20608;-64
2023/05/23 01:28:32;;;;;;;29.27;26.73;;;;;;;17.52;100.00;99973.75;5010897;28;20182;-64
2023/05/23 01:30:59;;;;;;;29.30;26.77;;;;;;;17.45;100.00;99970.03;5001749;28;20771;-63
2023/05/23 01:33:27;;;;;;;29.53;26.53;;;;;;;17.40;100.00;99975.63;5022855;28;20884;-63
2023/05/23 01:35:56;;;;;;;27.83;25.53;;;;;;;17.31;100.00;99973.81;5013844;28;20193;-63
2023/05/23 01:38:21;;;;;;;26.53;24.30;;;;;;;17.19;100.00;99967.88;5014355;28;20646;-63
2023/05/23 01:40:47;;;;;;;26.27;23.77;;;;;;;17.11;100.00;99973.72;5009927;28;20228;-64
2023/05/23 01:43:12;;;;;;;25.93;23.63;;;;;;;17.06;100.00;99970.69;5023880;28;20568;-63
2023/05/23 01:45:38;;;;;;;24.07;21.83;;;;;;;16.96;100.00;99973.22;5014476;28;20553;-63
2023/05/23 01:48:04;;;;;;;23.73;21.43;;;;;;;16.93;100.00;99970.88;5012701;28;20279;-64
2023/05/23 01:50:31;;;;;;;24.83;20.43;;;;;;;16.84;100.00;99969.03;5007767;28;20261;-64
2023/05/23 01:52:57;;;;;;;23.43;21.33;;;;;;;16.81;100.00;99977.91;5012894;28;20179;-63
2023/05/23 01:55:25;;;;;;;22.10;20.20;;;;;;;16.68;100.00;99988.44;5013630;28;20202;-64
2023/05/23 01:57:52;;;;;;;21.20;19.23;;;;;;;16.57;100.00;99983.31;5013834;28;20182;-64
2023/05/23 02:00:18;;;;;;;20.47;18.57;;;;;;;16.43;100.00;99977.50;5004911;28;20260;-65
2023/05/23 02:02:44;;;;;;;21.47;17.20;;;;;;;16.34;100.00;99975.63;5015560;28;20634;-63
2023/05/23 02:05:10;;;;;;;17.73;16.03;;;;;;;16.29;100.00;99988.16;5013720;28;20209;-64
2023/05/23 02:07:35;;;;;;;17.37;15.77;;;;;;;16.22;100.00;99982.63;5014017;28;20638;-64
2023/05/23 02:10:00;;;;;;;15.87;14.30;;;;;;;16.20;100.00;99994.91;5012350;28;20235;-63
2023/05/23 02:12:26;;;;;;;15.60;14.20;;;;;;;16.22;100.00;99994.78;5019156;28;20222;-64
2023/05/23 02:14:53;;;;;;;15.67;14.10;;;;;;;16.18;100.00;99991.63;5014165;28;20523;-64
2023/05/23 02:17:20;;;;;;;15.73;14.00;;;;;;;16.07;100.00;99994.25;5012911;28;20539;-64
2023/05/23 02:19:46;;;;;;;20.47;15.17;;;;;;;16.10;100.00;99996.59;5013868;28;20189;-64
2023/05/23 02:22:11;;;;;;;16.90;15.17;;;;;;;16.09;100.00;99997.56;5018726;28;20222;-64
2023/05/23 02:24:37;;;;;;;15.23;13.73;;;;;;;16.05;100.00;100003.91;5013609;28;20210;-65
2023/05/23 02:27:02;;;;;;;15.17;13.77;;;;;;;16.16;100.00;100001.28;5011844;28;20175;-63
2023/05/23 02:29:27;;;;;;;19.77;15.20;;;;;;;16.07;100.00;100000.25;5003215;28;20245;-63
2023/05/23 02:31:52;;;;;;;16.37;14.70;;;;;;;16.08;100.00;100004.50;5014428;28;20321;-64
2023/05/23 02:34:18;;;;;;;17.17;15.63;;;;;;;15.97;100.00;100001.94;5014721;28;20175;-63
2023/05/23 02:36:43;;;;;;;19.33;16.33;;;;;;;15.92;100.00;100004.88;5012878;28;20638;-64
2023/05/23 02:39:08;;;;;;;16.70;15.10;;;;;;;15.77;100.00;100011.25;5012070;28;20228;-63
2023/05/23 02:41:33;;;;;;;17.63;15.80;;;;;;;15.67;100.00;100015.50;5009458;28;20611;-65
2023/05/23 02:43:59;;;;;;;16.73;15.23;;;;;;;15.69;100.00;100017.03;5016751;28;20237;-64
2023/05/23 02:46:24;;;;;;;16.53;14.83;;;;;;;15.73;100.00;100022.81;5013119;28;20186;-63
2023/05/23 02:48:50;;;;;;;16.47;14.73;;;;;;;15.67;100.00;100018.09;5013274;28;20174;-64
2023/05/23 02:51:15;;;;;;;16.73;14.90;;;;;;;15.67;100.00;100021.50;5004854;28;20229;-63
2023/05/23 02:53:40;;;;;;;16.40;14.90;;;;;;;15.72;100.00;100027.16;5018989;28;20189;-64
2023/05/23 02:56:07;;;;;;;16.43;14.17;;;;;;;15.77;100.00;100029.41;5012567;28;20653;-64
2023/05/23 02:58:34;;;;;;;15.30;13.90;;;;;;;15.69;100.00;100032.59;5013027;28;20183;-64
2023/05/23 03:01:00;;;;;;;17.10;15.50;;;;;;;15.68;100.00;100030.94;4992379;28;20280;-63
2023/05/23 03:03:27;;;;;;;16.60;15.10;;;;;;;15.71;100.00;100029.88;5012435;28;20225;-64
2023/05/23 03:05:53;;;;;;;16.33;14.67;;;;;;;15.70;100.00;100030.81;5010743;28;20228;-65
2023/05/23 03:08:18;;;;;;;18.77;15.53;;;;;;;15.69;100.00;100030.00;5009980;28;20223;-65
2023/05/23 03:10:43;;;;;;;18.67;17.07;;;;;;;15.60;100.00;100031.53;4996520;28;20677;-64
2023/05/23 03:13:08;;;;;;;17.77;16.07;;;;;;;15.51;100.00;100032.22;5011633;28;20183;-64
2023/05/23 03:15:34;;;;;;;18.27;16.57;;;;;;;15.38;100.00;100045.31;5006276;28;20236;-64
2023/05/23 03:17:59;;;;;;;18.40;16.43;;;;;;;15.29;100.00;100048.56;5010904;28;20645;-64
2023/05/23 03:20:24;;;;;;;20.00;17.93;;;;;;;15.13;100.00;100054.06;5005723;28;20272;-64
2023/05/23 03:22:50;;;;;;;19.93;18.07;;;;;;;15.09;100.00;100050.06;5024732;28;20630;-65
2023/05/23 03:25:15;;;;;;;22.10;19.87;;;;;;;15.04;100.00;100047.00;5012499;28;20191;-64
2023/05/23 03:27:41;;;;;;;22.87;20.87;;;;;;;14.88;100.00;100047.31;5012495;28;20277;-64
2023/05/23 03:30:06;;;;;;;26.67;24.17;;;;;;;14.85;100.00;100050.94;4975359;28;20206;-64
2023/05/23 03:32:32;;;;;;;26.17;23.70;;;;;;;14.88;100.00;100052.47;5009354;28;20237;-64
2023/05/23 03:34:57;;;;;;;26.10;23.60;;;;;;;14.92;100.00;100054.75;5012391;28;20631;-66
2023/05/23 03:37:22;;;;;;;27.67;25.03;;;;;;;14.97;100.00;100060.41;5012524;28;20183;-65
2023/05/23 03:39:47;;;;;;;26.60;23.90;;;;;;;15.01;100.00;100064.41;5012204;28;20195;-64
2023/05/23 03:42:13;;;;;;;26.73;24.13;;;;;;;15.05;100.00;100067.59;5017492;28;20225;-64
2023/05/23 03:44:38;;;;;;;28.83;26.03;;;;;;;15.19;100.00;100066.56;5012010;28;20194;-64
2023/05/23 03:47:03;;;;;;;27.67;24.97;;;;;;;15.14;100.00;100061.75;5010461;28;20171;-63
2023/05/23 04:09:39;;;;;;;23.30;20.87;;;;;;;15.59;100.00;100073.13;4989331;28;20240;-65
2023/05/23 04:12:05;;;;;;;22.10;19.90;;;;;;;15.60;100.00;100082.56;5016649;28;20226;-64
2023/05/23 04:14:32;;;;;;;22.00;20.03;;;;;;;15.71;100.00;100079.16;5010574;28;20205;-64
2023/05/23 04:16:57;;;;;;;21.57;19.67;;;;;;;15.78;100.00;100075.97;5011003;28;20326;-65
2023/05/23 04:19:23;;;;;;;20.17;18.27;;;;;;;15.84;100.00;100074.69;5012165;28;20277;-64
2023/05/23 04:21:48;;;;;;;22.40;20.27;;;;;;;15.84;100.00;100079.88;5014674;28;20595;-65
2023/05/23 04:24:13;;;;;;;20.83;18.83;;;;;;;15.70;100.00;100080.09;5013428;28;20186;-64
2023/05/23 04:26:38;;;;;;;17.17;15.57;;;;;;;15.54;100.00;100080.41;5011118;28;20266;-64
2023/05/23 04:29:04;;;;;;;16.57;14.87;;;;;;;15.48;100.00;100085.13;5003268;28;20187;-64
2023/05/23 04:31:30;;;;;;;13.60;12.40;;;;;;;15.51;100.00;100084.06;5007081;28;20718;-65
2023/05/23 04:33:56;;;;;;;13.87;12.47;;;;;;;15.58;100.00;100095.63;5010356;28;20178;-65
2023/05/23 04:36:22;;;;;;;12.17;11.07;;;;;;;15.49;100.00;100085.94;5011227;28;20260;-65
2023/05/23 04:38:48;;;;;;;10.67;9.67;;;;;;;15.46;100.00;100083.59;5011705;28;20610;-65
2023/05/23 04:41:15;;;;;;;9.73;8.83;;;;;;;15.47;100.00;100098.22;5010665;28;20340;-65
2023/05/23 04:43:41;;;;;;;10.03;8.93;;;;;;;15.42;100.00;100102.94;5017552;28;20190;-65
2023/05/23 04:46:08;;;;;;;11.07;8.70;;;;;;;15.33;100.00;100101.81;5009236;28;20186;-64
2023/05/23 04:48:35;;;;;;;10.13;9.20;;;;;;;15.34;100.00;100108.66;5011514;28;20547;-65
2023/05/23 04:51:01;;;;;;;9.57;8.23;;;;;;;15.31;100.00;100114.09;5003070;28;20313;-65
2023/05/23 04:53:26;;;;;;;9.00;8.20;;;;;;;15.41;100.00;100111.63;5019250;28;20199;-64
2023/05/23 04:55:51;;;;;;;9.27;8.47;;;;;;;15.49;100.00;100122.22;5010955;28;20209;-66
2023/05/23 04:58:16;;;;;;;8.90;8.17;;;;;;;15.31;100.00;100124.44;5011220;28;20178;-64
2023/05/23 05:00:42;;;;;;;9.73;8.70;;;;;;;15.32;100.00;100121.72;5003160;28;20233;-66
2023/05/23 05:03:08;;;;;;;10.97;9.83;;;;;;;15.28;100.00;100127.25;5021343;28;20642;-65
2023/05/23 05:05:34;;;;;;;9.47;8.67;;;;;;;15.36;100.00;100129.31;5011136;28;20174;-65
2023/05/23 05:07:59;;;;;;;10.40;9.30;;;;;;;15.50;100.00;100121.31;5009814;28;20273;-64
2023/05/23 05:10:24;;;;;;;9.70;8.80;;;;;;;15.65;100.00;100125.34;5002358;28;20275;-64
2023/05/23 05:12:49;;;;;;;10.00;8.50;;;;;;;15.88;100.00;100127.16;5023835;28;20179;-65
2023/05/23 05:15:16;;;;;;;8.40;7.47;;;;;;;15.92;100.00;100124.19;5010937;28;20191;-65
2023/05/23 05:17:42;;;;;;;8.83;7.93;;;;;;;15.92;100.00;100136.34;5011045;28;20230;-64
2023/05/23 05:20:08;;;;;;;8.60;7.80;;;;;;;15.88;100.00;100127.97;5001492;28;20175;-64
2023/05/23 05:22:35;;;;;;;7.57;6.87;;;;;;;16.12;100.00;100125.28;5009894;28;20186;-64
2023/05/23 05:25:01;;;;;;;6.77;6.13;;;;;;;16.41;100.00;100132.56;5011106;28;20510;-64
2023/05/23 05:27:26;;;;;;;7.10;6.50;;;;;;;16.64;100.00;100137.69;5010883;28;20240;-64
2023/05/23 05:29:52;;;;;;;6.87;6.27;;;;;;;16.56;100.00;100138.31;4997809;28;20207;-64
2023/05/23 05:32:17;;;;;;;7.07;6.47;;;;;;;16.56;100.00;100150.44;5016409;28;20271;-64
2023/05/23 05:34:43;;;;;;;7.20;6.60;;;;;;;16.24;100.00;100144.25;5013936;28;20241;-64
2023/05/23 05:37:08;;;;;;;6.63;6.13;;;;;;;16.49;100.00;100144.13;5014043;28;20228;-64
2023/05/23 05:39:33;;;;;;;6.53;6.03;;;;;;;16.39;100.00;100147.41;5009924;28;20206;-63
2023/05/23 05:42:00;;;;;;;6.80;6.27;;;;;;;16.51;100.00;100153.44;5010102;28;20218;-65
2023/05/23 05:44:25;;;;;;;6.97;6.30;;;;;;;16.43;100.00;100158.38;5014371;28;20171;-64
2023/05/23 05:46:51;;;;;;;7.67;7.00;;;;;;;16.24;100.00;100162.41;5014164;28;20630;-64
2023/05/23 05:49:16;;;;;;;7.87;7.17;;;;;;;16.14;100.00;100169.28;5014184;28;20549;-64
2023/05/23 05:51:41;;;;;;;7.73;7.13;;;;;;;16.08;100.00;100169.75;5016717;28;20283;-64
2023/05/23 05:54:06;;;;;;;8.07;7.27;;;;;;;16.21;100.00;100178.25;5016648;28;20675;-64
2023/05/23 05:56:32;;;;;;;8.40;7.70;;;;;;;16.20;100.00;100178.34;5013621;28;20186;-64
2023/05/23 05:58:57;;;;;;;9.73;8.80;;;;;;;16.17;100.00;100183.78;5014121;28;20183;-64
2023/05/23 06:01:24;;;;;;;8.83;8.13;;;;;;;15.96;100.00;100182.72;5014223;28;20249;-64
2023/05/23 06:03:49;;;;;;;9.63;8.83;;;;;;;16.00;100.00;100172.09;5018983;28;20190;-64
2023/05/23 06:06:14;;;;;;;8.97;8.27;;;;;;;16.33;100.00;100181.63;5013573;28;20506;-65
2023/05/23 06:08:41;;;;;;;10.13;9.20;;;;;;;16.62;100.00;100178.53;5013875;28;20602;-66
2023/05/23 06:11:06;;;;;;;8.97;8.27;;;;;;;16.90;100.00;100179.75;5011365;28;20237;-65
2023/05/23 06:13:31;;;;;;;8.73;8.07;;;;;;;16.68;100.00;100182.44;5012378;28;20233;-65
2023/05/23 06:15:57;;;;;;;9.57;8.77;;;;;;;16.68;100.00;100192.81;5011419;28;20190;-68
2023/05/23 06:18:22;;;;;;;8.90;8.20;;;;;;;16.48;100.00;100187.41;5012548;28;20273;-65
2023/05/23 06:20:48;;;;;;;8.60;7.80;;;;;;;16.48;100.00;100192.59;5008245;28;20608;-67
2023/05/23 06:23:13;;;;;;;8.63;7.83;;;;;;;16.36;100.00;100201.34;5020007;28;20244;-66
2023/05/23 06:25:38;;;;;;;8.60;7.90;;;;;;;16.26;100.00;100190.84;5013370;28;20175;-66
2023/05/23 06:28:03;;;;;;;8.77;8.03;;;;;;;16.35;100.00;100205.72;5013167;28;20645;-67
2023/05/23 06:30:29;;;;;;;7.77;7.17;;;;;;;16.41;100.00;100207.00;4990337;28;20226;-65
2023/05/23 06:32:54;;;;;;;8.40;7.70;;;;;;;16.57;100.00;100196.25;5011294;28;20539;-65
2023/05/23 06:35:19;;;;;;;8.10;7.40;;;;;;;16.58;100.00;100208.28;5010860;28;20191;-66
2023/05/23 06:37:44;;;;;;;7.77;7.17;;;;;;;16.37;100.00;100208.19;5007900;28;20229;-66
2023/05/23 06:40:13;;;;;;;6.67;6.17;;;;;;;16.37;100.00;100203.00;5000381;28;20516;-66
2023/05/23 06:42:39;;;;;;;8.23;6.77;;;;;;;16.48;100.00;100202.16;5026658;28;20194;-65
2023/05/23 06:45:04;;;;;;;7.40;6.90;;;;;;;16.27;100.00;100198.53;5012478;28;20560;-66
2023/05/23 06:47:30;;;;;;;6.97;6.37;;;;;;;16.42;100.00;100209.50;5013754;28;20210;-66
2023/05/23 06:49:55;;;;;;;6.73;6.20;;;;;;;16.44;100.00;100207.59;5012874;28;20209;-66
2023/05/23 06:52:20;;;;;;;6.57;5.97;;;;;;;16.42;100.00;100206.91;5014453;28;20253;-66
2023/05/23 06:54:46;;;;;;;7.00;6.37;;;;;;;16.49;100.00;100216.81;5012730;28;20194;-60
2023/05/23 06:57:11;;;;;;;6.13;5.63;;;;;;;16.45;100.00;100205.84;5007187;28;20216;-60
2023/05/23 06:59:36;;;;;;;6.80;6.20;;;;;;;16.60;100.00;100209.00;5012783;28;20179;-60
2023/05/23 07:02:01;;;;;;;5.73;5.33;;;;;;;16.65;100.00;100214.66;4990432;28;20540;-61
2023/05/23 07:04:27;;;;;;;6.23;5.73;;;;;;;16.62;100.00;100220.91;5012840;28;20179;-59
2023/05/23 07:06:52;;;;;;;5.63;5.13;;;;;;;16.65;100.00;100216.44;5012320;28;20183;-60
2023/05/23 07:09:17;;;;;;;6.00;5.57;;;;;;;16.57;100.00;100220.47;5012585;28;20671;-59
2023/05/23 07:11:43;;;;;;;5.83;5.33;;;;;;;16.55;100.00;100222.34;5015553;28;20241;-59
2023/05/23 07:14:08;;;;;;;5.50;5.10;;;;;;;16.52;100.00;100221.75;5015176;28;20543;-59
2023/05/23 07:16:33;;;;;;;6.23;5.73;;;;;;;16.55;100.00;100219.75;5013529;28;20237;-59
2023/05/23 07:19:00;;;;;;;5.37;4.97;;;;;;;16.80;100.00;100223.00;5011032;28;20207;-59
2023/05/23 07:21:25;;;;;;;5.53;5.03;;;;;;;17.17;100.00;100212.31;5012241;28;20816;-59
2023/05/23 07:23:51;;;;;;;5.30;4.80;;;;;;;17.89;100.00;100205.56;5017046;28;20199;-63
2023/05/23 07:26:16;;;;;;;4.13;3.73;;;;;;;19.17;100.00;100224.25;5012134;28;20214;-61
2023/05/23 07:28:41;;;;;;;4.70;4.30;;;;;;;20.24;100.00;100228.50;5009868;28;20182;-59
2023/05/23 07:31:08;;;;;;;4.00;3.70;;;;;;;19.80;100.00;100229.00;4982926;28;20237;-62
2023/05/23 07:33:33;;;;;;;3.80;3.50;;;;;;;20.82;100.00;100218.72;5013014;28;20185;-60
2023/05/23 07:35:59;;;;;;;3.53;3.23;;;;;;;21.23;98.08;100220.91;5011959;28;20178;-60
2023/05/23 07:38:25;;;;;;;3.97;3.50;;;;;;;22.88;90.05;100216.59;5012375;28;20173;-60
2023/05/23 07:40:51;;;;;;;4.57;3.10;;;;;;;23.34;84.25;100216.16;5008382;28;20276;-61
2023/05/23 07:43:16;;;;;;;3.23;2.97;;;;;;;23.67;79.82;100216.16;5021258;28;20186;-61
2023/05/23 07:45:41;;;;;;;3.33;2.70;;;;;;;24.66;72.10;100218.47;5011635;28;20179;-61
2023/05/23 07:48:07;;;;;;;3.35;2.60;;;;;;;26.22;63.82;100220.75;5011971;28;20174;-61
2023/05/23 07:50:32;;;;;;;3.50;3.13;;;;;;;26.50;57.31;100226.19;5003899;28;20243;-62
2023/05/23 07:52:58;;;;;;;3.05;2.85;;;;;;;25.11;64.46;100222.13;5018903;28;20265;-60
2023/05/23 07:55:23;;;;;;;3.67;2.72;;;;;;;24.79;71.55;100229.22;5011492;28;20194;-60
2023/05/23 07:57:48;;;;;;;2.85;2.63;;;;;;;25.17;66.85;100233.75;5011628;28;20228;-60
2023/05/23 08:00:14;;;;;;;7.07;3.17;;;;;;;24.00;77.72;100237.09;5003136;28;20183;-61
2023/05/23 08:02:39;;;;;;;3.47;3.05;;;;;;;22.94;83.63;100234.31;5024782;28;20261;-58
2023/05/23 08:05:05;;;;;;;3.67;3.25;;;;;;;22.89;88.39;100236.59;5011569;28;20269;-59
2023/05/23 08:07:31;;;;;;;3.30;2.88;;;;;;;23.69;79.00;100229.91;5010432;28;20190;-60
2023/05/23 08:09:56;;;;;;;2.78;2.58;;;;;;;24.99;70.38;100231.41;5009283;28;20365;-61
2023/05/23 08:12:21;;;;;;;2.92;2.72;;;;;;;25.53;57.84;100238.44;5014357;28;20698;-60
2023/05/23 08:14:47;;;;;;;2.92;2.47;;;;;;;26.61;57.88;100246.00;5008022;28;20194;-60
2023/05/23 08:17:12;;;;;;;2.38;2.28;;;;;;;27.03;51.74;100241.78;5009674;28;20233;-60
2023/05/23 08:19:37;;;;;;;2.60;2.40;;;;;;;28.04;48.65;100261.09;5011271;28;20194;-60
2023/05/23 08:22:03;;;;;;;3.17;2.88;;;;;;;27.90;48.56;100260.16;5016329;28;20232;-61
2023/05/23 08:24:29;;;;;;;2.90;2.70;;;;;;;26.83;50.56;100257.44;5011889;28;20187;-62
2023/05/23 08:26:55;;;;;;;2.63;2.42;;;;;;;26.89;48.60;100256.69;5003042;28;21491;-61
2023/05/23 08:29:20;;;;;;;2.40;2.20;;;;;;;25.33;58.89;100258.31;5002538;28;20198;-62
2023/05/23 08:31:46;;;;;;;2.80;2.45;;;;;;;24.85;67.61;100261.13;5011374;28;20371;-62
2023/05/23 08:34:13;;;;;;;3.08;2.50;;;;;;;24.22;73.63;100261.84;5013965;28;20273;-63
2023/05/23 08:36:39;;;;;;;2.97;2.75;;;;;;;22.63;85.13;100255.06;5011073;28;20179;-61
2023/05/23 08:39:04;;;;;;;2.88;2.67;;;;;;;22.28;88.84;100251.56;5011620;28;20190;-61
2023/05/23 08:41:30;;;;;;;3.33;2.70;;;;;;;21.55;92.86;100251.75;5012767;28;20268;-61
2023/05/23 08:43:56;;;;;;;3.60;3.27;;;;;;;21.52;94.46;100262.53;5015000;28;20785;-61
2023/05/23 08:46:22;;;;;;;2.97;2.70;;;;;;;21.08;93.90;100259.84;5011187;28;20190;-60
2023/05/23 08:48:51;;;;;;;2.90;2.70;;;;;;;21.00;93.62;100254.53;5011009;28;20503;-61
2023/05/23 08:51:18;;;;;;;3.23;2.93;;;;;;;20.89;95.02;100258.19;5008044;28;20229;-63
2023/05/23 08:53:47;;;;;;;3.07;2.80;;;;;;;21.74;94.37;100266.50;5010293;28;20717;-63
2023/05/23 08:56:15;;;;;;;2.67;2.47;;;;;;;21.55;93.07;100257.00;5009684;28;20581;-62
2023/05/23 08:58:41;;;;;;;2.77;2.57;;;;;;;21.55;91.93;100258.81;5011599;28;20185;-61
2023/05/23 09:01:08;;;;;;;3.27;2.90;;;;;;;21.28;92.96;100253.50;5009801;28;20277;-63
2023/05/23 09:03:36;;;;;;;2.87;2.67;;;;;;;21.41;94.25;100265.41;5010114;28;20183;-62
2023/05/23 09:06:02;;;;;;;3.80;2.83;;;;;;;21.47;92.22;100263.97;5010841;28;20282;-63
2023/05/23 09:08:28;;;;;;;3.17;2.87;;;;;;;21.10;92.93;100263.97;5012771;28;20206;-61
2023/05/23 09:10:53;;;;;;;3.23;3.00;;;;;;;20.14;100.00;100264.25;5011077;28;20256;-62
2023/05/23 09:13:19;;;;;;;3.67;3.37;;;;;;;19.57;100.00;100274.63;5023984;28;20183;-62
2023/05/23 09:16:05;;;;;;;6.20;3.63;;;;;;;19.57;100.00;100272.00;5014369;28;20229;-61
2023/05/23 09:18:40;;;;;;;3.63;3.27;;;;;;;19.43;100.00;100271.47;5014782;28;20174;-61
2023/05/23 09:21:07;;;;;;;3.97;3.47;;;;;;;19.42;100.00;100276.81;5012812;28;20233;-62
2023/05/23 09:23:33;;;;;;;5.77;3.47;;;;;;;19.28;100.00;100280.66;5021939;28;20648;-62
2023/05/23 09:26:09;;;;;;;3.67;3.37;;;;;;;19.03;100.00;100273.22;5014426;28;20194;-62
2023/05/23 09:28:38;;;;;;;4.03;3.73;;;;;;;18.95;100.00;100273.06;5025410;28;20266;-62
2023/05/23 09:31:07;;;;;;;4.33;3.73;;;;;;;19.23;100.00;100277.66;5003322;28;20246;-61
2023/05/23 09:33:46;;;;;;;5.30;3.80;;;;;;;19.28;100.00;100281.47;5021681;28;20181;-62
2023/05/23 09:36:11;;;;;;;4.73;4.33;;;;;;;19.29;100.00;100277.09;5014023;28;21005;-62
2023/05/23 09:38:38;;;;;;;4.33;3.50;;;;;;;19.48;100.00;100274.47;5014535;28;20187;-62
2023/05/23 09:41:03;;;;;;;3.97;3.67;;;;;;;19.86;100.00;100272.03;5011873;28;20241;-62
2023/05/23 09:43:29;;;;;;;3.90;3.60;;;;;;;20.36;100.00;100276.16;5010170;28;20297;-62
2023/05/23 09:45:57;;;;;;;5.73;3.93;;;;;;;20.42;98.77;100267.72;5013827;28;20175;-61
2023/05/23 09:48:29;;;;;;;4.60;4.20;;;;;;;19.71;100.00;100282.03;5014041;28;20186;-62
2023/05/23 09:50:55;;;;;;;4.83;4.43;;;;;;;20.04;100.00;100277.34;5010789;28;20339;-61
2023/05/23 09:53:21;;;;;;;4.90;4.50;;;;;;;20.14;97.90;100272.94;5022957;28;20198;-61
2023/05/23 09:55:53;;;;;;;4.73;4.33;;;;;;;20.22;99.66;100274.81;5013736;28;20182;-62
2023/05/23 09:58:19;;;;;;;4.53;4.10;;;;;;;20.28;97.12;100273.41;5012263;28;20199;-62
2023/05/23 10:00:51;;;;;;;5.07;4.67;;;;;;;20.42;97.52;100272.16;5005480;28;20677;-60
2023/05/23 10:03:23;;;;;;;5.73;5.23;;;;;;;20.58;97.55;100282.78;5012719;28;20194;-60
2023/05/23 10:05:52;;;;;;;5.43;4.93;;;;;;;20.32;97.69;100274.78;5012430;28;20233;-60
2023/05/23 10:08:37;;;;;;;5.27;4.87;;;;;;;21.12;94.84;100280.34;5013966;28;20595;-60
2023/05/23 10:11:32;;;;;;;5.10;4.70;;;;;;;21.94;91.25;100271.53;5011280;28;20671;-61
2023/05/23 10:14:00;;;;;;;5.63;5.03;;;;;;;22.56;87.15;100274.03;5011066;28;20966;-61
2023/05/23 10:16:43;;;;;;;5.43;4.93;;;;;;;22.06;86.07;100274.72;5009534;28;20567;-62
2023/05/23 10:19:26;;;;;;;5.83;5.33;;;;;;;21.20;91.21;100274.34;5013304;28;20187;-61
2023/05/23 10:21:59;;;;;;;6.13;5.30;;;;;;;20.68;94.24;100287.13;5012458;28;20229;-62
2023/05/23 10:24:26;;;;;;;5.77;5.07;;;;;;;20.09;99.21;100288.16;5014225;28;20633;-61
2023/05/23 10:26:53;;;;;;;7.10;5.77;;;;;;;19.40;100.00;100295.22;5013203;28;20174;-60
2023/05/23 10:29:19;;;;;;;6.37;5.73;;;;;;;19.47;100.00;100301.56;5004484;28;20578;-60
2023/05/23 10:31:45;;;;;;;6.60;6.00;;;;;;;19.27;100.00;100299.88;5012450;28;20567;-61
2023/05/23 10:34:31;;;;;;;6.30;5.80;;;;;;;19.78;100.00;100309.25;5015613;28;20229;-60
2023/05/23 10:37:01;;;;;;;6.50;5.90;;;;;;;19.78;100.00;100311.00;5013075;28;20182;-61
2023/05/23 10:39:45;;;;;;;6.37;5.63;;;;;;;19.85;100.00;100304.31;5013547;28;20182;-59
2023/05/23 10:42:16;;;;;;;8.43;7.63;;;;;;;20.38;100.00;100308.19;5009505;28;20233;-59
2023/05/23 10:44:41;;;;;;;8.20;7.27;;;;;;;20.55;99.41;100308.41;5013333;28;20201;-61
2023/05/23 10:47:06;;;;;;;6.40;5.80;;;;;;;21.16;97.60;100303.56;5012978;28;20650;-62
2023/05/23 10:49:40;;;;;;;8.20;7.40;;;;;;;21.43;94.32;100292.22;5010494;28;20254;-61
2023/05/23 10:52:07;;;;;;;6.67;5.90;;;;;;;21.56;93.84;100308.41;5015392;28;20222;-60
2023/05/23 10:54:41;;;;;;;5.67;5.07;;;;;;;21.40;93.47;100303.81;5011827;28;20215;-60
2023/05/23 10:57:09;;;;;;;6.23;5.73;;;;;;;20.83;96.63;100304.03;5012541;28;20186;-60
2023/05/23 10:59:37;;;;;;;8.67;7.80;;;;;;;20.67;100.00;100307.25;5010177;28;20179;-60
2023/05/23 11:02:06;;;;;;;9.97;8.93;;;;;;;19.85;100.00;100319.97;4985753;28;20774;-60
2023/05/23 11:04:31;;;;;;;7.27;6.60;;;;;;;19.50;100.00;100316.09;5012847;28;20252;-61
2023/05/23 11:06:57;;;;;;;9.43;8.57;;;;;;;19.32;100.00;100321.16;5010694;28;20262;-61
2023/05/23 11:09:22;;;;;;;13.07;11.87;;;;;;;19.31;100.00;100320.34;5009170;28;20178;-61
2023/05/23 11:11:57;;;;;;;9.20;8.40;;;;;;;18.99;100.00;100313.53;5002737;28;20318;-60
2023/05/23 11:14:50;;;;;;;8.50;7.80;;;;;;;19.15;100.00;100313.03;5009029;28;20197;-60
2023/05/23 11:17:17;;;;;;;8.90;8.07;;;;;;;18.90;100.00;100316.09;5013964;28;20276;-60
2023/05/23 11:19:58;;;;;;;9.83;8.57;;;;;;;19.35;100.00;100308.66;5012464;28;20578;-60
2023/05/23 11:22:29;;;;;;;8.33;7.23;;;;;;;19.87;100.00;100318.06;5016917;28;20260;-61
2023/05/23 11:24:55;;;;;;;7.70;7.00;;;;;;;20.23;100.00;100320.88;5012292;28;20250;-61
2023/05/23 11:27:28;;;;;;;8.63;7.83;;;;;;;21.20;100.00;100320.59;5010687;28;20757;-60
2023/05/23 11:30:12;;;;;;;6.20;5.60;;;;;;;21.37;96.08;100317.19;4999212;28;20297;-60
2023/05/23 11:32:37;;;;;;;7.40;6.80;;;;;;;20.55;99.95;100317.03;4964071;28;21346;-61
2023/05/23 11:35:12;;;;;;;8.20;7.40;;;;;;;20.07;100.00;100318.84;5009405;28;20187;-61